createdAt,value
2023-04-02T00:58:35.648Z,23.30
2023-04-02T01:01:03.130Z,22.10
2023-04-02T01:03:37.259Z,22.88
2023-04-02T01:06:10.669Z,22.08
2023-04-02T01:09:03.774Z,20.08
2023-04-02T01:12:05.774Z,22.02
2023-04-02T01:15:10.716Z,21.98
2023-04-02T01:17:49.138Z,22.60
2023-04-02T01:20:38.381Z,21.58
2023-04-02T01:23:13.768Z,22.55
2023-04-02T01:25:46.438Z,21.67
2023-04-02T01:28:51.777Z,24.58
2023-04-02T01:31:19.234Z,22.17
2023-04-02T01:33:46.401Z,24.13
2023-04-02T01:36:20.134Z,22.55
2023-04-02T01:39:12.422Z,23.35
2023-04-02T01:44:37.605Z,23.92
2023-04-02T01:47:11.890Z,24.73
2023-04-02T01:49:40.320Z,25.13
2023-04-02T01:52:07.613Z,23.80
2023-04-02T01:54:37.932Z,24.02
2023-04-02T01:57:05.944Z,23.90
2023-04-02T01:59:33.298Z,24.90
2023-04-02T02:02:05.624Z,25.48
2023-04-02T02:04:35.769Z,24.33
2023-04-02T02:07:04.277Z,23.60
2023-04-02T02:09:35.642Z,25.25
2023-04-02T02:12:04.199Z,24.00
2023-04-02T02:14:32.208Z,22.50
2023-04-02T02:17:04.304Z,21.23
2023-04-02T02:19:45.968Z,21.55
2023-04-02T02:22:32.886Z,21.38
2023-04-02T02:25:02.844Z,17.75
2023-04-02T02:27:42.436Z,14.90
2023-04-02T02:30:20.217Z,13.95
2023-04-02T02:33:06.985Z,13.93
2023-04-02T02:35:37.999Z,13.88
2023-04-02T02:40:55.362Z,12.68
2023-04-02T02:43:22.828Z,12.98
2023-04-02T02:45:51.465Z,12.80
2023-04-02T02:48:21.174Z,12.38
2023-04-02T02:50:49.490Z,12.70
2023-04-02T02:53:22.719Z,11.90
2023-04-02T02:55:56.491Z,11.15
2023-04-02T02:58:31.507Z,12.18
2023-04-02T03:01:06.868Z,11.45
2023-04-02T03:03:36.819Z,11.35
2023-04-02T03:06:11.307Z,11.75
2023-04-02T03:08:59.902Z,18.67
2023-04-02T03:11:37.988Z,20.30
2023-04-02T03:14:32.685Z,23.95
2023-04-02T03:17:29.958Z,22.20
2023-04-02T03:20:21.418Z,24.95
2023-04-02T03:23:02.432Z,24.35
2023-04-02T03:25:47.634Z,26.10
2023-04-02T03:28:23.293Z,25.58
2023-04-02T03:31:30.405Z,25.25
2023-04-02T03:34:23.830Z,25.17
2023-04-02T03:37:08.096Z,28.52
2023-04-02T03:39:43.339Z,28.33
2023-04-02T03:42:22.775Z,29.23
2023-04-02T03:44:58.338Z,29.27
2023-04-02T03:47:35.960Z,27.13
2023-04-02T03:50:15.552Z,27.95
2023-04-02T03:52:43.045Z,26.92
2023-04-02T03:55:18.089Z,27.67
2023-04-02T03:58:17.165Z,26.73
2023-04-02T04:01:09.396Z,29.38
2023-04-02T04:03:54.626Z,29.17
2023-04-02T04:06:29.313Z,27.83
2023-04-02T04:09:18.514Z,27.73
2023-04-02T04:11:49.771Z,29.27
2023-04-02T04:14:28.918Z,29.45
2023-04-02T04:17:30.181Z,28.58
2023-04-02T04:20:28.137Z,26.85
2023-04-02T04:23:16.962Z,28.67
2023-04-02T04:25:45.813Z,22.42
2023-04-02T04:28:30.659Z,13.85
2023-04-02T04:31:25.327Z,12.70
2023-04-02T04:34:03.111Z,6.50
2023-04-02T04:36:54.129Z,5.57
2023-04-02T04:39:36.699Z,6.10
2023-04-02T04:42:06.565Z,5.13
2023-04-02T04:45:23.322Z,5.75
2023-04-02T04:48:05.039Z,5.85
2023-04-02T04:50:38.701Z,5.35
2023-04-02T04:53:07.883Z,5.40
2023-04-02T04:55:39.757Z,5.13
2023-04-02T04:58:23.112Z,5.93
2023-04-02T05:00:56.604Z,22.17
2023-04-02T05:03:47.005Z,25.33
2023-04-02T05:06:51.635Z,24.63
2023-04-02T05:09:22.609Z,26.05
2023-04-02T05:12:35.015Z,27.90
2023-04-02T05:15:31.658Z,27.88
2023-04-02T05:18:19.444Z,28.27
2023-04-02T05:20:56.534Z,25.90
2023-04-02T05:23:30.413Z,27.88
2023-04-02T05:26:10.537Z,25.75
2023-04-02T05:28:44.552Z,26.63
2023-04-02T05:31:44.715Z,27.20
2023-04-02T05:34:13.321Z,25.75
2023-04-02T05:36:40.550Z,27.08
2023-04-02T05:39:11.577Z,24.73
2023-04-02T05:41:47.593Z,25.88
2023-04-02T05:44:31.756Z,26.80
2023-04-02T05:47:13.970Z,24.48
2023-04-02T05:49:41.694Z,26.27
2023-04-02T05:52:23.245Z,25.85
2023-04-02T05:54:57.076Z,25.23
2023-04-02T05:57:49.579Z,26.13
2023-04-02T06:00:42.367Z,26.88
2023-04-02T06:03:40.989Z,24.88
2023-04-02T06:06:39.944Z,24.85
2023-04-02T06:09:16.173Z,26.58
2023-04-02T06:11:49.589Z,26.50
2023-04-02T06:14:18.606Z,24.88
2023-04-02T06:16:47.601Z,24.15
2023-04-02T06:19:31.140Z,23.23
2023-04-02T06:22:08.986Z,24.92
2023-04-02T06:24:39.720Z,25.92
2023-04-02T06:27:10.226Z,25.58
2023-04-02T06:29:41.830Z,24.57
2023-04-02T06:32:13.623Z,24.45
2023-04-02T06:34:45.398Z,24.90
2023-04-02T06:37:39.325Z,24.52
2023-04-02T06:40:33.913Z,25.00
2023-04-02T06:43:36.530Z,25.48
2023-04-02T06:46:57.182Z,25.17
2023-04-02T06:49:51.558Z,24.73
2023-04-02T06:52:25.900Z,24.48
2023-04-02T06:54:53.396Z,23.67
2023-04-02T06:57:20.547Z,23.80
2023-04-02T06:59:49.494Z,22.10
2023-04-02T07:02:33.977Z,22.33
2023-04-02T07:05:06.814Z,22.73
2023-04-02T07:07:36.090Z,23.25
2023-04-02T07:10:07.198Z,23.52
2023-04-02T07:12:34.451Z,22.45
2023-04-02T07:15:01.532Z,21.60
2023-04-02T07:17:30.774Z,22.58
2023-04-02T07:19:58.057Z,22.88
2023-04-02T07:22:27.065Z,22.48
2023-04-02T07:25:00.499Z,22.67
2023-04-02T07:27:28.174Z,21.52
2023-04-02T07:30:07.500Z,18.40
2023-04-02T07:32:34.524Z,17.42
2023-04-02T07:35:01.550Z,16.40
2023-04-02T07:37:28.794Z,16.70
2023-04-02T07:39:55.859Z,16.42
2023-04-02T07:42:25.878Z,17.60
2023-04-02T07:45:05.782Z,16.55
2023-04-02T07:47:34.601Z,14.30
2023-04-02T07:50:01.634Z,15.65
2023-04-02T07:52:28.710Z,16.38
2023-04-02T07:54:55.694Z,16.17
2023-04-02T07:57:23.764Z,15.52
2023-04-02T07:59:51.602Z,14.32
2023-04-02T08:02:23.880Z,13.13
2023-04-02T08:04:54.793Z,14.98
2023-04-02T08:07:23.348Z,14.87
2023-04-02T08:09:52.674Z,13.45
2023-04-02T08:12:20.643Z,12.98
2023-04-02T08:14:51.294Z,13.05
2023-04-02T08:17:18.988Z,11.80
2023-04-02T08:20:03.087Z,12.32
2023-04-02T08:22:31.165Z,13.20
2023-04-02T08:25:20.428Z,12.60
2023-04-02T08:28:08.420Z,13.77
2023-04-02T08:30:36.255Z,13.70
2023-04-02T08:33:05.765Z,15.15
2023-04-02T08:35:34.842Z,13.55
2023-04-02T08:38:02.541Z,15.02
2023-04-02T08:40:37.785Z,16.67
2023-04-02T08:46:33.548Z,16.00
2023-04-02T08:49:12.996Z,12.95
2023-04-02T09:03:58.408Z,13.18
2023-04-02T09:06:27.964Z,13.20
2023-04-02T09:09:00.562Z,13.23
2023-04-02T09:12:01.426Z,14.35
2023-04-02T09:14:50.417Z,12.48
2023-04-02T09:17:53.199Z,8.98
2023-04-02T09:20:27.746Z,8.60
2023-04-02T09:22:56.854Z,7.30
2023-04-02T09:25:31.519Z,7.13
2023-04-02T09:28:04.757Z,6.60
2023-04-02T09:30:59.048Z,9.77
2023-04-02T09:33:49.841Z,12.55
2023-04-02T09:36:33.987Z,15.07
2023-04-02T09:39:07.101Z,18.35
2023-04-02T09:41:40.145Z,18.55
2023-04-02T09:44:32.794Z,18.90
2023-04-02T09:47:08.170Z,19.58
2023-04-02T09:49:42.194Z,19.13
2023-04-02T09:52:31.352Z,20.65
2023-04-02T09:55:22.756Z,22.65
2023-04-02T10:16:27.201Z,13.07
2023-04-02T10:19:32.800Z,12.45
2023-04-02T10:22:05.702Z,11.90
2023-04-02T10:24:35.542Z,12.40
2023-04-02T10:27:31.957Z,12.48
2023-04-02T10:30:27.680Z,12.40
2023-04-02T10:35:47.246Z,14.35
2023-04-02T10:38:46.484Z,16.30
2023-04-02T10:41:31.506Z,15.30
2023-04-02T10:44:16.775Z,14.93
2023-04-02T10:47:04.573Z,14.70
2023-04-02T10:50:08.667Z,13.23
2023-04-02T10:52:46.100Z,15.10
2023-04-02T10:55:26.183Z,11.75
2023-04-02T10:57:57.239Z,10.90
2023-04-02T11:00:37.273Z,9.75
2023-04-02T11:03:43.544Z,10.32
2023-04-02T11:06:40.274Z,9.38
2023-04-02T11:09:49.774Z,9.55
2023-04-02T11:12:41.533Z,9.77
2023-04-02T11:15:18.127Z,9.48
2023-04-02T11:17:48.633Z,9.52
2023-04-02T11:20:44.049Z,9.13
2023-04-02T11:23:20.935Z,9.60
2023-04-02T11:25:48.811Z,9.55
2023-04-02T11:28:26.947Z,9.82
2023-04-02T11:30:54.616Z,9.90
2023-04-02T11:33:46.175Z,9.82
2023-04-02T11:36:51.198Z,8.43
2023-04-02T11:39:57.010Z,5.28
2023-04-02T11:42:36.148Z,1.70
2023-04-02T11:45:33.777Z,1.48
2023-04-02T11:48:16.907Z,1.00
2023-04-02T11:50:48.390Z,1.00
2023-04-02T11:53:15.812Z,1.33
2023-04-02T11:55:45.780Z,1.10
2023-04-02T11:58:51.097Z,1.20
2023-04-02T12:01:58.577Z,1.00
2023-04-02T12:05:10.387Z,1.08
2023-04-02T12:08:07.006Z,0.80
2023-04-02T12:10:51.517Z,1.10
2023-04-02T12:13:44.787Z,1.20
2023-04-02T12:16:13.756Z,1.30
2023-04-02T12:18:56.336Z,1.15
2023-04-02T12:21:28.944Z,1.17
2023-04-02T12:24:00.111Z,1.30
2023-04-02T12:26:52.649Z,1.00
2023-04-02T12:29:29.767Z,1.10
2023-04-02T12:34:46.931Z,0.80
2023-04-02T12:37:22.721Z,0.80
2023-04-02T12:42:59.297Z,1.00
2023-04-02T12:45:33.557Z,0.80
2023-04-02T12:48:08.628Z,0.77
2023-04-02T12:50:36.576Z,0.82
2023-04-02T12:53:24.665Z,0.50
2023-04-02T12:55:59.374Z,0.70
2023-04-02T12:58:34.943Z,0.70
2023-04-02T13:01:21.038Z,0.70
2023-04-02T13:04:12.932Z,0.88
2023-04-02T13:09:38.839Z,0.73
2023-04-02T13:12:26.683Z,0.68
2023-04-02T13:15:11.025Z,0.57
2023-04-02T13:17:50.603Z,1.00
2023-04-02T13:20:38.100Z,0.65
2023-04-02T13:23:25.395Z,0.52
2023-04-02T13:25:59.536Z,0.63
2023-04-02T13:28:31.232Z,0.70
2023-04-02T13:30:59.612Z,0.77
2023-04-02T13:33:26.772Z,0.70
2023-04-02T13:35:54.257Z,0.50
2023-04-02T13:38:21.757Z,0.50
2023-04-02T13:40:49.264Z,0.40
2023-04-02T13:43:26.791Z,0.60
2023-04-02T13:45:55.513Z,0.50
2023-04-02T13:48:26.488Z,0.50
2023-04-02T13:50:54.660Z,0.57
2023-04-02T13:53:33.271Z,0.60
2023-04-02T13:56:01.083Z,0.70
2023-04-02T13:58:28.428Z,1.10
2023-04-02T14:00:58.491Z,1.20
2023-04-02T14:03:25.482Z,1.10
2023-04-02T14:06:07.110Z,0.82
2023-04-02T14:09:12.199Z,0.70
2023-04-02T14:11:49.703Z,0.85
2023-04-02T14:14:55.194Z,0.90
2023-04-02T14:17:51.126Z,0.52
2023-04-02T14:20:49.767Z,0.60
2023-04-02T14:23:21.625Z,0.57
2023-04-02T14:26:39.496Z,0.68
2023-04-02T14:29:29.249Z,0.77
2023-04-02T14:32:10.234Z,0.60
2023-04-02T14:34:48.908Z,0.60
2023-04-02T14:37:19.257Z,0.60
2023-04-02T14:39:49.477Z,0.80
2023-04-02T14:42:53.327Z,0.70
2023-04-02T14:45:32.776Z,0.60
2023-04-02T14:48:14.866Z,0.88
2023-04-02T14:50:43.244Z,0.80
2023-04-02T14:53:29.598Z,0.60
2023-04-02T15:02:51.780Z,0.90
2023-04-02T15:05:24.892Z,1.00
2023-04-02T15:08:22.708Z,0.98
2023-04-02T15:11:08.817Z,1.08
2023-04-02T15:13:58.874Z,0.80
2023-04-02T15:16:29.155Z,0.68
2023-04-02T15:18:58.450Z,0.80
2023-04-02T15:21:57.134Z,0.70
2023-04-02T15:27:28.998Z,0.70
2023-04-02T15:45:41.502Z,0.60
2023-04-02T15:48:18.777Z,0.50
2023-04-02T15:51:02.041Z,0.55
2023-04-02T15:53:51.297Z,0.60
2023-04-02T15:56:57.561Z,0.43
2023-04-02T15:59:38.766Z,0.70
2023-04-02T16:02:14.863Z,0.77
2023-04-02T16:05:05.066Z,0.95
2023-04-02T16:08:10.085Z,1.27
2023-04-02T16:10:43.223Z,0.90
2023-04-02T16:13:31.901Z,1.00
2023-04-02T16:16:09.327Z,0.73
2023-04-02T16:19:15.982Z,0.70
2023-04-02T16:21:55.768Z,0.50
2023-04-02T16:28:13.208Z,0.65
2023-04-02T16:31:07.099Z,0.60
2023-04-02T16:33:42.231Z,0.70
2023-04-02T16:36:22.660Z,1.00
2023-04-02T16:39:19.393Z,0.90
2023-04-02T16:41:58.803Z,0.80
2023-04-02T16:44:44.142Z,0.93
2023-04-02T16:47:49.824Z,0.90
2023-04-02T16:50:36.546Z,0.80
2023-04-02T16:53:22.513Z,0.60
2023-04-02T16:56:01.690Z,0.63
2023-04-02T16:58:47.151Z,0.68
2023-04-02T17:01:36.555Z,0.80
2023-04-02T17:08:03.156Z,0.90
2023-04-02T17:10:34.857Z,0.80
2023-04-02T17:13:23.872Z,1.50
2023-04-02T17:16:15.246Z,1.35
2023-04-02T17:18:55.372Z,1.30
2023-04-02T17:21:29.254Z,1.50
2023-04-02T17:24:18.432Z,1.30
2023-04-02T17:29:46.248Z,1.20
2023-04-02T17:32:48.519Z,1.20
2023-04-02T17:36:03.373Z,1.65
2023-04-02T17:39:00.074Z,1.60
2023-04-02T17:42:09.890Z,1.30
2023-04-02T17:44:57.844Z,1.23
2023-04-02T17:47:38.946Z,1.45
2023-04-02T17:50:18.145Z,1.30
2023-04-02T17:52:58.557Z,1.55
2023-04-02T17:55:52.981Z,1.60
2023-04-02T17:58:47.373Z,1.63
2023-04-02T18:01:44.896Z,3.70
2023-04-02T18:04:46.616Z,3.65
2023-04-02T18:07:31.360Z,4.25
2023-04-02T18:10:13.198Z,4.55
2023-04-02T18:13:05.832Z,3.83
2023-04-02T18:15:55.717Z,3.53
2023-04-02T18:18:29.307Z,2.95
2023-04-02T18:21:08.277Z,5.90
2023-04-02T18:23:44.311Z,3.10
2023-04-02T18:26:29.365Z,3.45
2023-04-02T18:29:06.386Z,2.63
2023-04-02T18:31:57.988Z,4.82
2023-04-02T18:35:03.491Z,4.95
2023-04-02T18:37:39.585Z,4.15
2023-04-02T18:40:37.146Z,4.80
2023-04-02T18:43:13.612Z,3.80
2023-04-02T18:45:59.750Z,2.50
2023-04-02T18:48:29.844Z,2.20
2023-04-02T18:50:59.486Z,2.20
2023-04-02T18:53:29.366Z,2.60
2023-04-02T18:56:04.974Z,2.10
2023-04-02T18:59:02.735Z,2.40
2023-04-02T19:01:39.059Z,2.50
2023-04-02T19:04:15.429Z,1.90
2023-04-02T19:06:45.440Z,1.45
2023-04-02T19:09:15.238Z,1.70
2023-04-02T19:11:42.865Z,1.95
2023-04-02T19:14:16.914Z,2.42
2023-04-02T19:17:10.143Z,3.47
2023-04-02T19:20:07.224Z,4.03
2023-04-02T19:23:17.421Z,2.38
2023-04-02T19:25:50.146Z,2.08
2023-04-02T19:28:34.061Z,2.13
2023-04-02T19:31:12.250Z,2.25
2023-04-02T19:34:12.194Z,2.40
2023-04-02T19:36:54.767Z,1.90
2023-04-02T19:39:47.022Z,2.00
2023-04-02T19:42:22.450Z,1.60
2023-04-02T19:44:52.037Z,1.55
2023-04-02T19:47:20.028Z,1.80
2023-04-02T19:49:47.318Z,2.10
2023-04-02T19:52:14.382Z,2.08
2023-04-02T19:54:41.502Z,1.85
2023-04-02T19:57:12.090Z,2.38
2023-04-02T19:59:39.076Z,2.60
2023-04-02T20:02:16.201Z,2.80
2023-04-02T20:04:43.145Z,2.17
2023-04-02T20:07:10.070Z,1.80
2023-04-02T20:09:37.138Z,1.63
2023-04-02T20:12:04.364Z,1.90
2023-04-02T20:14:34.026Z,4.03
2023-04-02T20:17:01.498Z,3.08
2023-04-02T20:19:32.156Z,2.28
2023-04-02T20:22:01.467Z,2.40
2023-04-02T20:24:28.501Z,2.60
2023-04-02T20:26:55.570Z,2.40
2023-04-02T20:29:25.829Z,3.35
2023-04-02T20:31:52.900Z,2.55
2023-04-02T20:34:20.105Z,2.10
2023-04-02T20:36:48.711Z,1.88
2023-04-02T20:39:19.468Z,2.05
2023-04-02T20:41:47.507Z,1.80
2023-04-02T20:44:15.115Z,2.00
2023-04-02T20:46:42.337Z,1.85
2023-04-02T20:49:09.650Z,2.40
2023-04-02T20:51:36.667Z,1.40
2023-04-02T20:54:03.877Z,1.33
2023-04-02T20:56:30.920Z,1.73
2023-04-02T20:58:58.043Z,1.45
2023-04-02T21:01:27.696Z,1.83
2023-04-02T21:04:03.779Z,1.40
2023-04-02T21:06:34.345Z,1.73
2023-04-02T21:09:03.028Z,1.65
2023-04-02T21:11:30.925Z,1.50
2023-04-02T21:13:58.057Z,1.38
2023-04-02T21:16:28.911Z,1.35
2023-04-02T21:19:04.204Z,1.38
2023-04-02T21:21:31.486Z,1.30
2023-04-02T21:24:01.070Z,1.48
2023-04-02T21:26:30.647Z,1.30
2023-04-02T21:28:58.953Z,1.33
2023-04-02T21:31:29.377Z,1.38
2023-04-02T21:34:02.923Z,1.60
2023-04-02T21:36:32.681Z,1.73
2023-04-02T21:39:17.046Z,1.60
2023-04-02T21:41:46.854Z,1.30
2023-04-02T21:44:14.741Z,1.30
2023-04-02T21:46:42.808Z,1.45
2023-04-02T21:49:12.267Z,1.50
2023-04-02T21:51:41.383Z,1.05
2023-04-02T21:54:08.817Z,1.20
2023-04-02T21:56:38.190Z,0.90
2023-04-02T21:59:06.856Z,0.88
2023-04-02T22:01:36.675Z,0.80
2023-04-02T22:04:05.719Z,0.88
2023-04-02T22:06:39.789Z,1.50
2023-04-02T22:09:10.228Z,2.10
2023-04-02T22:12:00.004Z,1.83
2023-04-02T22:14:27.682Z,2.25
2023-04-02T22:16:54.696Z,2.00
2023-04-02T22:19:21.812Z,1.83
2023-04-02T22:21:49.198Z,1.08
2023-04-02T22:24:18.896Z,1.58
2023-04-02T22:26:46.725Z,0.70
2023-04-02T22:29:14.377Z,0.68
2023-04-02T22:31:46.729Z,0.95
2023-04-02T22:34:16.504Z,0.73
2023-04-02T22:36:43.489Z,0.90
2023-04-02T22:39:19.652Z,0.82
2023-04-02T22:41:46.651Z,0.70
2023-04-02T22:44:15.413Z,1.00
2023-04-02T22:46:42.722Z,0.75
2023-04-02T22:49:11.142Z,0.80
2023-04-02T22:51:38.134Z,0.70
2023-04-02T22:54:05.700Z,0.75
2023-04-02T22:56:33.185Z,0.90
2023-04-02T22:59:00.859Z,0.90
2023-04-02T23:01:36.095Z,0.70
2023-04-02T23:04:05.192Z,0.80
2023-04-02T23:06:32.614Z,0.50
2023-04-02T23:08:59.677Z,0.70
2023-04-02T23:11:29.417Z,0.80
2023-04-02T23:13:57.948Z,0.50
2023-04-02T23:16:27.349Z,0.68
2023-04-02T23:18:55.549Z,0.55
2023-04-02T23:21:23.255Z,0.80
2023-04-02T23:23:51.262Z,0.63
2023-04-02T23:26:21.766Z,0.70
2023-04-02T23:28:49.876Z,0.80
2023-04-02T23:31:22.416Z,0.65
2023-04-02T23:33:51.860Z,0.70
2023-04-02T23:36:23.523Z,0.68
2023-04-02T23:38:56.014Z,0.75
2023-04-02T23:41:26.640Z,0.80
2023-04-02T23:43:54.800Z,0.80
2023-04-02T23:46:23.221Z,0.70
2023-04-02T23:48:51.255Z,0.68
2023-04-02T23:51:18.500Z,0.70
2023-04-02T23:53:45.532Z,0.80
2023-04-02T23:56:12.724Z,0.80
2023-04-02T23:58:39.763Z,0.70
